createdAt,value
2019-01-19T00:00:06.683Z,215.91
2019-01-19T00:01:06.837Z,215.91
2019-01-19T00:02:07.094Z,215.95
2019-01-19T00:03:07.163Z,215.96
2019-01-19T00:04:07.310Z,215.90
2019-01-19T00:05:10.543Z,216.01
2019-01-19T00:06:07.655Z,215.93
2019-01-19T00:07:07.815Z,215.91
2019-01-19T00:08:07.984Z,215.91
2019-01-19T00:09:08.135Z,215.99
2019-01-19T00:10:08.363Z,215.99
2019-01-19T00:11:08.455Z,215.95
2019-01-19T00:12:08.608Z,215.99
2019-01-19T00:13:08.797Z,215.99
2019-01-19T00:14:08.945Z,215.96
2019-01-19T00:15:09.104Z,215.91
2019-01-19T00:16:09.298Z,215.99
2019-01-19T00:17:09.424Z,215.99
2019-01-19T00:18:09.644Z,215.99
2019-01-19T00:19:09.728Z,215.99
2019-01-19T00:20:09.894Z,215.93
2019-01-19T00:21:10.074Z,216.07
2019-01-19T00:22:10.211Z,216.07
2019-01-19T00:23:10.390Z,215.99
2019-01-19T00:24:10.521Z,216.06
2019-01-19T00:25:10.708Z,216.07
2019-01-19T00:26:10.919Z,216.03
2019-01-19T00:27:11.065Z,215.99
2019-01-19T00:28:11.194Z,216.10
2019-01-19T00:29:11.321Z,215.98
2019-01-19T00:30:11.515Z,216.03
2019-01-19T00:31:11.674Z,216.10
2019-01-19T00:32:11.835Z,216.10
2019-01-19T00:33:12.000Z,216.12
2019-01-19T00:34:12.149Z,216.15
2019-01-19T00:35:17.835Z,216.13
2019-01-19T00:36:13.474Z,216.20
2019-01-19T00:37:12.641Z,216.19
2019-01-19T00:38:12.791Z,216.13
2019-01-19T00:39:12.922Z,216.15
2019-01-19T00:40:13.081Z,216.13
2019-01-19T00:41:13.277Z,216.14
2019-01-19T00:42:13.677Z,216.10
2019-01-19T00:43:13.680Z,216.10
2019-01-19T00:44:13.736Z,216.10
2019-01-19T00:45:13.874Z,216.15
2019-01-19T00:46:14.084Z,216.19
2019-01-19T00:47:14.227Z,216.16
2019-01-19T00:48:14.396Z,216.22
2019-01-19T00:49:14.531Z,216.19
2019-01-19T00:50:14.700Z,216.22
2019-01-19T00:51:14.921Z,216.19
2019-01-19T00:52:15.020Z,216.16
2019-01-19T00:53:15.186Z,216.13
2019-01-19T00:54:15.332Z,216.22
2019-01-19T00:55:15.491Z,216.20
2019-01-19T00:56:15.671Z,216.20
2019-01-19T00:57:15.801Z,216.18
2019-01-19T00:58:15.988Z,216.10
2019-01-19T00:59:16.208Z,216.15
2019-01-19T01:00:16.313Z,216.14
2019-01-19T01:01:16.502Z,216.14
2019-01-19T01:02:16.625Z,216.13
2019-01-19T01:03:16.783Z,216.10
2019-01-19T01:04:16.959Z,216.16
2019-01-19T01:05:17.125Z,216.16
2019-01-19T01:06:17.326Z,216.15
2019-01-19T01:07:17.451Z,216.22
2019-01-19T01:08:17.682Z,216.18
2019-01-19T01:09:17.790Z,216.22
2019-01-19T01:10:17.950Z,216.20
2019-01-19T01:11:18.321Z,216.19
2019-01-19T01:12:18.273Z,216.19
2019-01-19T01:13:18.419Z,216.22
2019-01-19T01:14:18.596Z,216.22
2019-01-19T01:15:18.795Z,216.22
2019-01-19T01:16:19.107Z,216.20
2019-01-19T01:17:19.099Z,216.20
2019-01-19T01:18:19.255Z,216.25
2019-01-19T01:19:19.433Z,216.25
2019-01-19T01:20:19.585Z,216.20
2019-01-19T01:21:19.773Z,216.20
2019-01-19T01:22:19.920Z,216.16
2019-01-19T01:23:20.071Z,216.18
2019-01-19T01:24:20.266Z,216.24
2019-01-19T01:25:20.372Z,216.22
2019-01-19T01:26:20.556Z,216.18
2019-01-19T01:27:20.711Z,216.18
2019-01-19T01:28:20.860Z,216.20
2019-01-19T01:29:21.037Z,216.19
2019-01-19T01:30:21.164Z,216.22
2019-01-19T01:31:21.360Z,216.19
2019-01-19T01:32:21.588Z,216.22
2019-01-19T01:33:21.653Z,216.13
2019-01-19T01:34:21.838Z,216.20
2019-01-19T01:35:21.979Z,216.14
2019-01-19T01:36:22.151Z,216.19
2019-01-19T01:37:22.332Z,216.14
2019-01-19T01:38:22.472Z,216.15
2019-01-19T01:39:22.653Z,216.18
2019-01-19T01:40:22.811Z,216.22
2019-01-19T01:41:23.015Z,216.15
2019-01-19T01:42:23.133Z,216.18
2019-01-19T01:43:23.275Z,216.10
2019-01-19T01:44:23.456Z,269.68
2019-01-19T01:45:23.593Z,267.94
2019-01-19T01:46:23.773Z,267.98
2019-01-19T01:47:23.918Z,268.89
2019-01-19T01:48:24.086Z,268.48
2019-01-19T01:49:24.376Z,266.58
2019-01-19T01:50:24.414Z,269.18
2019-01-19T01:51:24.603Z,269.82
2019-01-19T01:52:24.724Z,269.27
2019-01-19T01:53:24.893Z,267.05
2019-01-19T01:54:25.076Z,269.27
2019-01-19T01:55:25.283Z,268.21
2019-01-19T01:56:25.405Z,268.71
2019-01-19T01:57:25.680Z,269.32
2019-01-19T01:58:25.701Z,268.35
2019-01-19T01:59:25.868Z,267.82
2019-01-19T02:00:26.019Z,269.02
2019-01-19T02:01:26.196Z,268.37
2019-01-19T02:02:26.368Z,269.23
2019-01-19T02:03:26.484Z,269.73
2019-01-19T02:04:26.682Z,268.69
2019-01-19T02:05:26.892Z,269.65
2019-01-19T02:06:26.997Z,269.00
2019-01-19T02:07:27.158Z,268.51
2019-01-19T02:08:27.310Z,269.20
2019-01-19T02:09:27.473Z,267.84
2019-01-19T02:10:27.626Z,268.40
2019-01-19T02:11:27.807Z,269.10
2019-01-19T02:12:27.981Z,268.56
2019-01-19T02:13:28.156Z,269.93
2019-01-19T02:14:28.298Z,267.64
2019-01-19T02:15:28.452Z,268.50
2019-01-19T02:16:28.627Z,268.82
2019-01-19T02:17:28.819Z,268.71
2019-01-19T02:18:28.972Z,269.40
2019-01-19T02:19:29.147Z,269.46
2019-01-19T02:20:29.287Z,269.10
2019-01-19T02:21:29.450Z,269.31
2019-01-19T02:22:29.986Z,269.11
2019-01-19T02:23:29.806Z,270.49
2019-01-19T02:24:29.970Z,268.25
2019-01-19T02:25:30.092Z,269.80
2019-01-19T02:26:30.255Z,268.62
2019-01-19T02:27:30.448Z,269.70
2019-01-19T02:28:30.594Z,267.62
2019-01-19T02:29:30.764Z,268.75
2019-01-19T02:30:31.023Z,268.70
2019-01-19T02:31:31.070Z,268.01
2019-01-19T02:32:31.294Z,268.80
2019-01-19T02:33:31.428Z,269.65
2019-01-19T02:34:31.587Z,269.45
2019-01-19T02:35:31.725Z,268.07
2019-01-19T02:36:31.878Z,268.86
2019-01-19T02:37:32.056Z,267.77
2019-01-19T02:38:32.292Z,269.40
2019-01-19T02:39:32.383Z,270.09
2019-01-19T02:40:32.525Z,268.16
2019-01-19T02:41:32.686Z,267.43
2019-01-19T02:42:32.845Z,268.88
2019-01-19T02:43:33.013Z,268.95
2019-01-19T02:44:33.197Z,268.37
2019-01-19T02:45:33.346Z,267.92
2019-01-19T02:46:33.533Z,268.28
2019-01-19T02:47:33.646Z,268.81
2019-01-19T02:48:33.807Z,268.73
2019-01-19T02:49:33.992Z,269.04
2019-01-19T02:50:34.139Z,267.91
2019-01-19T02:51:34.291Z,268.98
2019-01-19T02:52:34.479Z,267.42
2019-01-19T02:53:34.762Z,269.52
2019-01-19T02:54:34.830Z,269.49
2019-01-19T02:55:34.989Z,269.02
2019-01-19T02:56:35.117Z,267.75
2019-01-19T02:57:35.314Z,268.34
2019-01-19T02:58:35.445Z,269.43
2019-01-19T02:59:35.618Z,267.54
2019-01-19T03:00:35.761Z,269.11
2019-01-19T03:01:35.932Z,268.85
2019-01-19T03:02:36.107Z,270.39
2019-01-19T03:03:36.411Z,268.77
2019-01-19T03:04:36.404Z,267.55
2019-01-19T03:05:36.555Z,269.30
2019-01-19T03:06:36.717Z,269.16
2019-01-19T03:07:36.897Z,268.62
2019-01-19T03:08:37.054Z,269.60
2019-01-19T03:09:37.236Z,268.25
2019-01-19T03:10:37.356Z,267.91
2019-01-19T03:11:37.599Z,267.65
2019-01-19T03:12:37.707Z,268.44
2019-01-19T03:13:37.856Z,269.08
2019-01-19T03:14:38.025Z,269.19
2019-01-19T03:15:38.161Z,269.47
2019-01-19T03:16:38.321Z,269.37
2019-01-19T03:17:38.516Z,268.70
2019-01-19T03:18:38.668Z,268.51
2019-01-19T03:19:38.862Z,267.49
2019-01-19T03:20:38.986Z,268.29
2019-01-19T03:21:39.139Z,267.29
2019-01-19T03:22:39.326Z,268.80
2019-01-19T03:23:39.479Z,269.01
2019-01-19T03:24:39.658Z,269.65
2019-01-19T03:25:39.819Z,268.61
2019-01-19T03:26:39.982Z,268.29
2019-01-19T03:27:40.204Z,268.38
2019-01-19T03:28:40.333Z,268.22
2019-01-19T03:29:40.480Z,269.69
2019-01-19T03:30:40.651Z,268.79
2019-01-19T03:31:40.795Z,269.21
2019-01-19T03:32:40.977Z,269.62
2019-01-19T03:33:41.098Z,269.16
2019-01-19T03:34:41.290Z,269.33
2019-01-19T03:35:41.468Z,268.97
2019-01-19T03:36:41.720Z,269.52
2019-01-19T03:37:41.775Z,269.34
2019-01-19T03:38:41.905Z,270.27
2019-01-19T03:39:42.091Z,269.96
2019-01-19T03:40:42.255Z,270.13
2019-01-19T03:41:42.400Z,267.54
2019-01-19T03:42:42.564Z,269.80
2019-01-19T03:43:42.717Z,269.10
2019-01-19T03:44:42.971Z,268.77
2019-01-19T03:45:43.073Z,269.60
2019-01-19T03:46:43.204Z,270.66
2019-01-19T03:47:43.375Z,270.20
2019-01-19T03:48:43.515Z,268.48
2019-01-19T03:49:43.671Z,269.43
2019-01-19T03:50:43.884Z,269.79
2019-01-19T03:51:44.010Z,270.71
2019-01-19T03:52:44.253Z,270.85
2019-01-19T03:53:44.312Z,268.52
2019-01-19T03:54:44.465Z,269.62
2019-01-19T03:55:44.676Z,271.47
2019-01-19T03:56:44.818Z,270.36
2019-01-19T03:57:44.986Z,269.39
2019-01-19T03:58:45.368Z,269.67
2019-01-19T03:59:45.307Z,270.07
2019-01-19T04:00:45.509Z,269.83
2019-01-19T04:01:45.598Z,268.83
2019-01-19T04:02:45.795Z,267.88
2019-01-19T04:03:45.955Z,268.30
2019-01-19T04:04:46.100Z,269.67
2019-01-19T04:05:46.337Z,270.02
2019-01-19T04:06:46.408Z,268.07
2019-01-19T04:07:46.608Z,269.39
2019-01-19T04:08:46.783Z,269.25
2019-01-19T04:09:47.538Z,270.36
2019-01-19T04:10:47.407Z,269.59
2019-01-19T04:11:47.225Z,269.44
2019-01-19T04:12:47.405Z,269.89
2019-01-19T04:13:47.570Z,269.50
2019-01-19T04:14:47.734Z,268.87
2019-01-19T04:15:47.919Z,268.28
2019-01-19T04:16:48.066Z,269.12
2019-01-19T04:17:48.297Z,270.34
2019-01-19T04:18:48.370Z,269.83
2019-01-19T04:19:48.532Z,269.45
2019-01-19T04:20:48.709Z,268.66
2019-01-19T04:21:48.867Z,268.61
2019-01-19T04:22:49.012Z,269.28
2019-01-19T04:23:49.192Z,270.08
2019-01-19T04:24:49.380Z,268.10
2019-01-19T04:25:49.627Z,269.98
2019-01-19T04:26:49.693Z,269.02
2019-01-19T04:27:49.835Z,269.54
2019-01-19T04:28:50.028Z,268.55
2019-01-19T04:29:50.192Z,268.04
2019-01-19T04:30:50.381Z,268.85
2019-01-19T04:31:50.543Z,266.88
2019-01-19T04:32:50.725Z,268.10
2019-01-19T04:33:50.881Z,268.48
2019-01-19T04:34:50.987Z,269.43
2019-01-19T04:35:51.172Z,269.51
2019-01-19T04:36:51.331Z,269.03
2019-01-19T04:37:51.461Z,270.28
2019-01-19T04:38:51.648Z,269.01
2019-01-19T04:39:51.779Z,267.96
2019-01-19T04:40:51.990Z,269.93
2019-01-19T04:41:52.169Z,268.64
2019-01-19T04:42:52.441Z,268.67
2019-01-19T04:43:52.467Z,269.60
2019-01-19T04:44:52.590Z,268.93
2019-01-19T04:45:52.786Z,269.61
2019-01-19T04:46:52.956Z,270.08
2019-01-19T04:47:53.105Z,270.63
2019-01-19T04:48:53.281Z,269.26
2019-01-19T04:49:53.446Z,268.74
2019-01-19T04:50:53.690Z,267.23
2019-01-19T04:51:53.817Z,269.33
2019-01-19T04:52:53.909Z,269.03
2019-01-19T04:53:55.606Z,268.08
2019-01-19T04:54:54.232Z,268.05
2019-01-19T04:55:54.393Z,267.96
2019-01-19T04:56:54.576Z,269.41
2019-01-19T04:57:54.723Z,268.58
2019-01-19T04:58:55.041Z,269.80
2019-01-19T04:59:55.045Z,267.13
2019-01-19T05:00:55.208Z,268.47
2019-01-19T05:01:55.391Z,267.60
2019-01-19T05:02:55.529Z,268.21
2019-01-19T05:03:55.712Z,269.42
2019-01-19T05:04:55.851Z,269.50
2019-01-19T05:05:56.026Z,269.14
2019-01-19T05:06:56.244Z,267.53
2019-01-19T05:07:57.037Z,268.65
2019-01-19T05:08:56.501Z,269.40
2019-01-19T05:09:56.644Z,269.32
2019-01-19T05:10:57.133Z,269.11
2019-01-19T05:11:56.977Z,268.62
2019-01-19T05:12:57.122Z,268.59
2019-01-19T05:13:57.304Z,268.75
2019-01-19T05:14:57.513Z,269.05
2019-01-19T05:15:57.606Z,217.18
2019-01-19T05:16:57.764Z,268.00
2019-01-19T05:17:57.933Z,267.90
2019-01-19T05:18:58.092Z,267.65
2019-01-19T05:19:58.252Z,268.92
2019-01-19T05:20:58.428Z,268.09
2019-01-19T05:21:58.576Z,268.07
2019-01-19T05:22:58.772Z,270.50
2019-01-19T05:23:58.993Z,267.62
2019-01-19T05:24:59.058Z,269.33
2019-01-19T05:25:59.234Z,269.12
2019-01-19T05:26:59.378Z,267.77
2019-01-19T05:27:59.547Z,268.75
2019-01-19T05:28:59.720Z,267.56
2019-01-19T05:29:59.846Z,270.01
2019-01-19T05:31:00.039Z,268.87
2019-01-19T05:32:00.312Z,269.30
2019-01-19T05:33:00.351Z,268.35
2019-01-19T05:34:00.522Z,270.02
2019-01-19T05:35:00.686Z,268.52
2019-01-19T05:36:00.877Z,267.47
2019-01-19T05:37:01.046Z,268.34
2019-01-19T05:38:01.946Z,267.94
2019-01-19T05:39:01.368Z,269.11
2019-01-19T05:40:01.601Z,268.05
2019-01-19T05:41:01.660Z,267.36
2019-01-19T05:42:01.857Z,267.95
2019-01-19T05:43:01.994Z,267.23
2019-01-19T05:44:02.163Z,268.29
2019-01-19T05:45:02.313Z,268.13
2019-01-19T05:46:02.468Z,268.14
2019-01-19T05:47:02.647Z,269.02
2019-01-19T05:48:02.857Z,268.28
2019-01-19T05:49:02.980Z,268.51
2019-01-19T05:50:03.120Z,268.10
2019-01-19T05:51:03.283Z,267.83
2019-01-19T05:52:03.439Z,268.59
2019-01-19T05:53:03.614Z,270.14
2019-01-19T05:54:03.767Z,269.11
2019-01-19T05:55:03.918Z,270.12
2019-01-19T05:56:04.118Z,268.72
2019-01-19T05:57:04.317Z,269.09
2019-01-19T05:58:04.467Z,267.82
2019-01-19T05:59:04.618Z,268.44
2019-01-19T06:00:04.778Z,267.40
2019-01-19T06:01:04.940Z,268.24
2019-01-19T06:02:05.119Z,267.75
2019-01-19T06:03:05.275Z,267.67
2019-01-19T06:04:05.424Z,268.24
2019-01-19T06:05:05.690Z,269.83
2019-01-19T06:06:05.741Z,268.05
2019-01-19T06:07:05.920Z,268.08
2019-01-19T06:08:06.065Z,269.52
2019-01-19T06:09:06.238Z,269.21
2019-01-19T06:10:06.383Z,267.54
2019-01-19T06:11:06.559Z,267.30
2019-01-19T06:12:06.727Z,267.30
2019-01-19T06:13:07.001Z,266.88
2019-01-19T06:14:07.033Z,266.53
2019-01-19T06:15:07.187Z,267.72
2019-01-19T06:16:07.354Z,267.51
2019-01-19T06:17:07.520Z,268.96
2019-01-19T06:18:07.668Z,267.12
2019-01-19T06:19:07.840Z,267.51
2019-01-19T06:20:07.991Z,267.73
2019-01-19T06:21:08.190Z,267.68
2019-01-19T06:22:08.317Z,267.53
2019-01-19T06:23:08.461Z,267.48
2019-01-19T06:24:08.660Z,268.09
2019-01-19T06:25:08.769Z,268.50
2019-01-19T06:26:08.961Z,268.55
2019-01-19T06:27:09.120Z,267.59
2019-01-19T06:28:09.263Z,268.32
2019-01-19T06:29:09.465Z,267.69
2019-01-19T06:30:09.548Z,267.57
2019-01-19T06:31:09.756Z,269.02
2019-01-19T06:32:09.924Z,267.46
2019-01-19T06:33:10.082Z,267.41
2019-01-19T06:34:10.235Z,267.78
2019-01-19T06:35:10.418Z,267.46
2019-01-19T06:36:10.589Z,268.22
2019-01-19T06:37:10.758Z,268.01
2019-01-19T06:38:11.004Z,269.38
2019-01-19T06:39:11.097Z,267.77
2019-01-19T06:40:11.277Z,268.54
2019-01-19T06:41:11.417Z,267.66
2019-01-19T06:42:11.613Z,269.13
2019-01-19T06:43:11.776Z,267.40
2019-01-19T06:44:11.950Z,267.42
2019-01-19T06:45:12.114Z,267.38
2019-01-19T06:46:12.392Z,266.42
2019-01-19T06:47:12.438Z,268.76
2019-01-19T06:48:12.596Z,266.67
2019-01-19T06:49:12.760Z,267.19
2019-01-19T06:50:12.940Z,267.17
2019-01-19T06:51:13.107Z,269.08
2019-01-19T06:52:13.255Z,268.51
2019-01-19T06:53:13.400Z,269.40
2019-01-19T06:54:13.655Z,268.65
2019-01-19T06:55:13.742Z,266.87
2019-01-19T06:56:13.902Z,268.26
2019-01-19T06:57:14.059Z,268.39
2019-01-19T06:58:14.198Z,267.52
2019-01-19T06:59:17.516Z,267.29
2019-01-19T07:00:14.551Z,268.79
2019-01-19T07:01:14.709Z,267.96
2019-01-19T07:02:14.927Z,267.82
2019-01-19T07:03:15.000Z,267.70
2019-01-19T07:04:15.153Z,266.63
2019-01-19T07:05:15.340Z,268.30
2019-01-19T07:06:15.503Z,267.54
2019-01-19T07:07:15.672Z,266.97
2019-01-19T07:08:15.807Z,267.33
2019-01-19T07:09:15.971Z,268.95
2019-01-19T07:10:16.167Z,267.11
2019-01-19T07:11:16.388Z,267.24
2019-01-19T07:12:16.483Z,267.51
2019-01-19T07:13:16.627Z,267.50
2019-01-19T07:14:16.786Z,267.70
2019-01-19T07:15:17.175Z,268.62
2019-01-19T07:16:17.124Z,267.62
2019-01-19T07:17:17.301Z,267.65
2019-01-19T07:18:17.478Z,266.89
2019-01-19T07:19:17.746Z,267.27
2019-01-19T07:20:17.775Z,266.89
2019-01-19T07:21:17.941Z,268.29
2019-01-19T07:22:18.120Z,266.70
2019-01-19T07:23:18.259Z,268.70
2019-01-19T07:24:18.419Z,268.67
2019-01-19T07:25:18.592Z,267.44
2019-01-19T07:26:18.745Z,268.58
2019-01-19T07:27:19.042Z,267.97
2019-01-19T07:28:19.071Z,266.11
2019-01-19T07:29:19.231Z,267.57
2019-01-19T07:30:19.413Z,268.65
2019-01-19T07:31:19.551Z,268.48
2019-01-19T07:32:19.714Z,268.89
2019-01-19T07:33:19.900Z,267.76
2019-01-19T07:34:20.062Z,268.17
2019-01-19T07:35:20.284Z,268.25
2019-01-19T07:36:20.361Z,267.32
2019-01-19T07:37:20.512Z,266.25
2019-01-19T07:38:20.701Z,267.44
2019-01-19T07:39:20.905Z,267.97
2019-01-19T07:40:21.055Z,268.05
2019-01-19T07:41:21.202Z,268.21
2019-01-19T07:42:21.356Z,268.13
2019-01-19T07:43:21.551Z,267.65
2019-01-19T07:44:21.708Z,266.13
2019-01-19T07:45:21.873Z,267.32
2019-01-19T07:46:22.021Z,268.53
2019-01-19T07:47:22.180Z,268.16
2019-01-19T07:48:22.359Z,267.11
2019-01-19T07:49:22.507Z,268.21
2019-01-19T07:50:22.683Z,267.95
2019-01-19T07:51:22.907Z,267.05
2019-01-19T07:52:23.105Z,266.84
2019-01-19T07:53:23.188Z,267.81
2019-01-19T07:54:23.316Z,266.12
2019-01-19T07:55:23.508Z,268.08
2019-01-19T07:56:24.846Z,269.20
2019-01-19T07:57:30.964Z,266.13
2019-01-19T07:58:24.997Z,267.13
2019-01-19T07:59:24.138Z,266.78
2019-01-19T08:00:24.468Z,267.31
2019-01-19T08:01:24.457Z,267.22
2019-01-19T08:02:24.632Z,266.80
2019-01-19T08:03:24.801Z,266.59
2019-01-19T08:04:24.952Z,268.55
2019-01-19T08:05:25.120Z,267.43
2019-01-19T08:06:25.259Z,266.85
2019-01-19T08:07:25.452Z,267.20
2019-01-19T08:08:26.884Z,268.72
2019-01-19T08:09:25.745Z,266.98
2019-01-19T08:10:25.928Z,268.61
2019-01-19T08:11:26.054Z,268.97
2019-01-19T08:12:26.240Z,268.75
2019-01-19T08:13:26.409Z,217.54
2019-01-19T08:14:26.555Z,267.95
2019-01-19T08:15:26.745Z,266.80
2019-01-19T08:16:27.106Z,268.93
2019-01-19T08:17:26.931Z,267.20
2019-01-19T08:18:27.125Z,268.34
2019-01-19T08:19:27.312Z,267.04
2019-01-19T08:20:27.427Z,268.21
2019-01-19T08:21:27.575Z,266.82
2019-01-19T08:22:27.720Z,267.37
2019-01-19T08:23:27.910Z,268.85
2019-01-19T08:24:28.095Z,267.70
2019-01-19T08:25:28.331Z,268.49
2019-01-19T08:26:28.419Z,268.45
2019-01-19T08:27:28.581Z,268.62
2019-01-19T08:28:28.771Z,265.84
2019-01-19T08:29:28.915Z,268.36
2019-01-19T08:30:29.114Z,267.37
2019-01-19T08:31:29.236Z,266.52
2019-01-19T08:32:29.428Z,269.42
2019-01-19T08:33:29.681Z,268.45
2019-01-19T08:34:29.716Z,267.56
2019-01-19T08:35:29.891Z,268.81
2019-01-19T08:36:30.036Z,268.93
2019-01-19T08:37:30.186Z,267.75
2019-01-19T08:38:30.352Z,267.23
2019-01-19T08:39:30.513Z,268.55
2019-01-19T08:40:30.689Z,267.44
2019-01-19T08:41:30.944Z,267.66
2019-01-19T08:42:30.978Z,267.03
2019-01-19T08:43:31.171Z,267.55
2019-01-19T08:44:31.341Z,267.74
2019-01-19T08:45:31.494Z,268.38
2019-01-19T08:46:31.670Z,267.11
2019-01-19T08:47:31.837Z,268.76
2019-01-19T08:48:32.009Z,268.73
2019-01-19T08:49:32.169Z,267.89
2019-01-19T08:50:32.298Z,268.00
2019-01-19T08:51:32.489Z,267.79
2019-01-19T08:52:32.636Z,267.51
2019-01-19T08:53:32.821Z,268.35
2019-01-19T08:54:33.184Z,267.72
2019-01-19T08:55:33.120Z,267.52
2019-01-19T08:56:33.288Z,268.47
2019-01-19T08:57:33.517Z,267.05
2019-01-19T08:58:33.600Z,269.19
2019-01-19T08:59:33.760Z,266.85
2019-01-19T09:00:33.904Z,268.70
2019-01-19T09:01:34.095Z,266.19
2019-01-19T09:02:34.258Z,267.44
2019-01-19T09:03:34.442Z,266.72
2019-01-19T09:04:34.559Z,266.69
2019-01-19T09:05:34.765Z,266.51
2019-01-19T09:06:34.995Z,266.28
2019-01-19T09:07:35.053Z,266.24
2019-01-19T09:08:35.247Z,266.41
2019-01-19T09:09:35.374Z,268.05
2019-01-19T09:10:35.535Z,266.05
2019-01-19T09:11:35.696Z,267.50
2019-01-19T09:12:35.875Z,266.64
2019-01-19T09:13:36.055Z,266.62
2019-01-19T09:14:36.314Z,266.91
2019-01-19T09:15:36.347Z,266.96
2019-01-19T09:16:39.616Z,216.93
2019-01-19T09:17:37.684Z,216.97
2019-01-19T09:18:36.859Z,216.94
2019-01-19T09:19:36.998Z,216.94
2019-01-19T09:20:37.159Z,216.85
2019-01-19T09:21:37.342Z,216.85
2019-01-19T09:22:37.521Z,216.81
2019-01-19T09:23:37.654Z,216.73
2019-01-19T09:24:37.793Z,216.73
2019-01-19T09:25:37.952Z,216.73
2019-01-19T09:26:38.145Z,216.69
2019-01-19T09:27:38.269Z,216.62
2019-01-19T09:28:38.453Z,216.73
2019-01-19T09:29:38.594Z,216.69
2019-01-19T09:30:38.792Z,216.67
2019-01-19T09:31:38.915Z,216.73
2019-01-19T09:32:39.063Z,216.62
2019-01-19T09:33:39.239Z,216.57
2019-01-19T09:34:39.381Z,216.53
2019-01-19T09:35:39.559Z,216.51
2019-01-19T09:36:39.743Z,216.48
2019-01-19T09:37:40.976Z,216.42
2019-01-19T09:38:40.100Z,216.41
2019-01-19T09:39:40.255Z,216.39
2019-01-19T09:40:40.372Z,216.30
2019-01-19T09:41:40.572Z,216.36
2019-01-19T09:42:40.691Z,216.33
2019-01-19T09:43:40.897Z,216.34
2019-01-19T09:44:41.037Z,216.25
2019-01-19T09:45:41.217Z,216.27
2019-01-19T09:46:41.372Z,216.27
2019-01-19T09:47:41.625Z,216.24
2019-01-19T09:48:41.674Z,216.16
2019-01-19T09:49:41.805Z,216.22
2019-01-19T09:50:41.982Z,216.15
2019-01-19T09:51:42.183Z,216.10
2019-01-19T09:52:42.318Z,216.16
2019-01-19T09:53:42.472Z,216.13
2019-01-19T09:54:42.651Z,215.96
2019-01-19T09:55:42.926Z,216.04
2019-01-19T09:56:42.994Z,216.04
2019-01-19T09:57:43.135Z,216.03
2019-01-19T09:58:43.294Z,216.04
2019-01-19T09:59:43.475Z,215.98
2019-01-19T10:00:45.771Z,215.98
2019-01-19T10:01:43.809Z,215.94
2019-01-19T10:02:43.949Z,215.99
2019-01-19T10:03:44.172Z,215.95
2019-01-19T10:04:44.263Z,215.96
2019-01-19T10:05:44.404Z,215.99
2019-01-19T10:06:44.576Z,215.91
2019-01-19T10:07:48.431Z,215.81
2019-01-19T10:08:44.913Z,215.81
2019-01-19T10:09:45.143Z,215.71
2019-01-19T10:10:45.222Z,215.82
2019-01-19T10:11:45.476Z,215.84
2019-01-19T10:12:45.514Z,215.84
2019-01-19T10:13:45.690Z,215.82
2019-01-19T10:14:45.873Z,215.82
2019-01-19T10:15:46.018Z,215.83
2019-01-19T10:16:46.208Z,215.87
2019-01-19T10:17:46.352Z,215.77
2019-01-19T10:18:46.488Z,215.76
2019-01-19T10:19:46.708Z,215.81
2019-01-19T10:20:46.889Z,215.76
2019-01-19T10:21:47.026Z,215.74
2019-01-19T10:22:47.143Z,215.76
2019-01-19T10:23:47.334Z,215.76
2019-01-19T10:24:47.503Z,215.70
2019-01-19T10:25:47.629Z,215.73
2019-01-19T10:26:47.807Z,215.61
2019-01-19T10:27:47.957Z,215.57
2019-01-19T10:28:48.232Z,215.55
2019-01-19T10:29:48.284Z,215.49
2019-01-19T10:30:48.428Z,215.51
2019-01-19T10:31:48.614Z,215.56
2019-01-19T10:32:48.993Z,215.53
2019-01-19T10:33:48.910Z,215.50
2019-01-19T10:34:49.071Z,215.47
2019-01-19T10:35:49.238Z,215.45
2019-01-19T10:36:49.505Z,215.37
2019-01-19T10:37:55.743Z,215.33
2019-01-19T10:38:50.710Z,215.31
2019-01-19T10:39:49.870Z,215.31
2019-01-19T10:40:50.033Z,215.31
2019-01-19T10:41:50.223Z,215.35
2019-01-19T10:42:50.353Z,215.37
2019-01-19T10:43:50.517Z,215.26
2019-01-19T10:44:50.740Z,215.22
2019-01-19T10:45:50.800Z,215.20
2019-01-19T10:46:51.007Z,215.25
2019-01-19T10:47:51.146Z,215.22
2019-01-19T10:48:51.303Z,215.29
2019-01-19T10:49:51.477Z,215.19
2019-01-19T10:50:51.626Z,215.22
2019-01-19T10:51:51.777Z,215.13
2019-01-19T10:52:52.002Z,215.13
2019-01-19T10:53:52.121Z,215.05
2019-01-19T10:54:52.305Z,215.12
2019-01-19T10:55:53.199Z,215.10
2019-01-19T10:56:52.646Z,215.12
2019-01-19T10:57:52.771Z,215.05
2019-01-19T10:58:52.946Z,215.00
2019-01-19T10:59:53.166Z,215.01
2019-01-19T11:00:53.286Z,214.94
2019-01-19T11:01:53.467Z,214.94
2019-01-19T11:02:53.606Z,214.94
2019-01-19T11:03:53.780Z,214.94
2019-01-19T11:04:53.967Z,214.83
2019-01-19T11:05:54.102Z,214.88
2019-01-19T11:06:54.263Z,214.92
2019-01-19T11:07:54.455Z,214.86
2019-01-19T11:08:54.573Z,214.88
2019-01-19T11:09:54.902Z,214.89
2019-01-19T11:10:54.904Z,214.94
2019-01-19T11:11:55.064Z,214.87
2019-01-19T11:12:55.232Z,214.91
2019-01-19T11:13:55.545Z,214.83
2019-01-19T11:14:55.584Z,214.83
2019-01-19T11:15:55.717Z,214.80
2019-01-19T11:16:55.879Z,214.76
2019-01-19T11:17:56.129Z,214.83
2019-01-19T11:18:56.170Z,214.80
2019-01-19T11:19:56.366Z,214.83
2019-01-19T11:20:56.511Z,214.78
2019-01-19T11:21:56.670Z,214.70
2019-01-19T11:22:56.858Z,214.75
2019-01-19T11:23:56.994Z,214.76
2019-01-19T11:24:57.222Z,214.75
2019-01-19T11:25:57.352Z,214.70
2019-01-19T11:26:57.477Z,214.66
2019-01-19T11:27:57.641Z,214.60
2019-01-19T11:28:57.785Z,214.63
2019-01-19T11:29:57.960Z,214.61
2019-01-19T11:30:58.087Z,214.61
2019-01-19T11:31:58.276Z,214.54
2019-01-19T11:32:58.482Z,214.51
2019-01-19T11:33:58.650Z,214.50
2019-01-19T11:34:58.834Z,214.46
2019-01-19T11:35:58.970Z,214.49
2019-01-19T11:36:59.092Z,214.48
2019-01-19T11:37:59.292Z,214.44
2019-01-19T11:38:59.427Z,214.48
2019-01-19T11:39:59.607Z,214.43
2019-01-19T11:40:59.749Z,214.48
2019-01-19T11:41:59.914Z,214.44
2019-01-19T11:43:00.207Z,214.35
2019-01-19T11:44:00.250Z,214.34
2019-01-19T11:45:00.427Z,214.29
2019-01-19T11:46:00.570Z,214.32
2019-01-19T11:47:00.716Z,214.32
2019-01-19T11:48:00.916Z,214.43
2019-01-19T11:49:01.060Z,214.41
2019-01-19T11:50:01.240Z,214.40
2019-01-19T11:51:01.492Z,214.48
2019-01-19T11:52:01.533Z,214.50
2019-01-19T11:53:01.795Z,214.44
2019-01-19T11:54:01.867Z,214.49
2019-01-19T11:55:02.038Z,214.47
2019-01-19T11:56:02.190Z,214.46
2019-01-19T11:57:02.333Z,214.43
2019-01-19T11:58:02.517Z,214.43
2019-01-19T11:59:02.746Z,214.42
2019-01-19T12:00:02.875Z,214.42
2019-01-19T12:01:03.014Z,214.37
2019-01-19T12:02:03.181Z,214.44
2019-01-19T12:03:03.356Z,214.40
2019-01-19T12:04:03.485Z,214.42
2019-01-19T12:05:03.666Z,214.36
2019-01-19T12:06:03.846Z,214.34
2019-01-19T12:07:04.046Z,214.38
2019-01-19T12:08:04.170Z,214.32
2019-01-19T12:09:04.295Z,214.28
2019-01-19T12:10:04.475Z,214.33
2019-01-19T12:11:04.674Z,214.28
2019-01-19T12:12:04.849Z,214.28
2019-01-19T12:13:05.236Z,214.26
2019-01-19T12:14:05.141Z,214.26
2019-01-19T12:15:05.329Z,214.29
2019-01-19T12:16:05.556Z,214.28
2019-01-19T12:17:05.624Z,214.19
2019-01-19T12:18:05.814Z,214.20
2019-01-19T12:19:05.943Z,214.19
2019-01-19T12:20:06.107Z,214.16
2019-01-19T12:21:06.266Z,214.23
2019-01-19T12:22:06.434Z,214.27
2019-01-19T12:23:06.619Z,214.28
2019-01-19T12:24:06.887Z,214.19
2019-01-19T12:25:06.916Z,214.21
2019-01-19T12:26:07.072Z,214.21
2019-01-19T12:27:07.224Z,214.23
2019-01-19T12:28:07.432Z,214.18
2019-01-19T12:29:07.546Z,214.28
2019-01-19T12:30:07.703Z,214.26